createdAt,value
2023-12-20T00:12:32.112Z,0.9
2023-12-20T00:25:32.120Z,1.4
2023-12-20T00:38:32.119Z,1.5
2023-12-20T00:51:32.110Z,0.9
2023-12-20T01:04:32.157Z,0.8
2023-12-20T01:17:32.154Z,0.5
2023-12-20T01:30:32.165Z,0.6
2023-12-20T01:43:37.857Z,0.6
2023-12-20T01:56:32.318Z,0.8
2023-12-20T02:09:32.166Z,0.8
2023-12-20T02:22:32.159Z,0.8
2023-12-20T02:35:32.171Z,0.9
2023-12-20T02:48:32.283Z,1.0
2023-12-20T03:01:32.247Z,0.7
2023-12-20T03:14:32.175Z,1.0
2023-12-20T03:27:32.177Z,0.5
2023-12-20T03:40:32.246Z,0.0
2023-12-20T03:53:32.189Z,-0.3
2023-12-20T04:06:32.301Z,0.0
2023-12-20T04:19:32.288Z,0.7
2023-12-20T04:32:32.224Z,1.7
2023-12-20T04:45:32.249Z,1.6
2023-12-20T04:58:32.269Z,1.7
2023-12-20T05:11:32.221Z,1.6
2023-12-20T05:24:32.210Z,1.6
2023-12-20T05:37:32.244Z,1.5
2023-12-20T05:50:32.234Z,2.0
2023-12-20T06:03:32.236Z,1.9
2023-12-20T06:16:32.254Z,2.0
2023-12-20T06:29:32.245Z,2.1
2023-12-20T06:42:35.069Z,1.7
2023-12-20T06:56:32.567Z,1.7
2023-12-20T07:10:32.250Z,1.9
2023-12-20T07:24:32.274Z,2.8
2023-12-20T07:38:32.276Z,3.0
2023-12-20T07:53:32.642Z,4.0
2023-12-20T08:07:32.288Z,4.8
2023-12-20T08:21:34.111Z,4.6
2023-12-20T08:35:32.312Z,4.9
2023-12-20T08:49:32.430Z,5.3
2023-12-20T09:03:32.300Z,6.2
2023-12-20T09:17:33.341Z,7.1
2023-12-20T09:31:32.464Z,8.6
2023-12-20T09:46:32.354Z,7.9
2023-12-20T10:00:32.331Z,7.8
2023-12-20T10:23:32.341Z,8.3
2023-12-20T10:37:32.410Z,8.4
2023-12-20T10:51:32.358Z,9.1
2023-12-20T11:05:32.367Z,8.9
2023-12-20T11:20:32.395Z,8.3
2023-12-20T11:35:32.469Z,8.2
2023-12-20T12:16:32.437Z,8.0
2023-12-20T12:40:32.389Z,8.4
2023-12-20T12:54:32.390Z,9.0
2023-12-20T13:08:32.390Z,9.2
2023-12-20T13:26:32.636Z,9.4
2023-12-20T13:41:32.396Z,9.6
2023-12-20T13:55:32.476Z,9.6
2023-12-20T14:10:32.560Z,9.0
2023-12-20T14:24:32.434Z,9.2
2023-12-20T14:44:32.450Z,8.3
2023-12-20T14:58:32.528Z,7.4
2023-12-20T15:12:32.457Z,6.2
2023-12-20T15:27:32.472Z,5.6
2023-12-20T15:46:32.523Z,4.5
2023-12-20T16:32:32.526Z,3.2
2023-12-20T17:05:32.551Z,3.2
2023-12-20T17:18:32.585Z,2.8
2023-12-20T17:59:32.537Z,2.3
2023-12-20T18:13:32.619Z,2.6
2023-12-20T18:26:32.542Z,2.3
2023-12-20T18:39:33.801Z,2.0
2023-12-20T18:52:32.620Z,2.0
2023-12-20T19:06:32.582Z,1.8
2023-12-20T19:25:32.606Z,1.9
2023-12-20T19:49:32.690Z,1.5
2023-12-20T20:02:32.654Z,1.6
2023-12-20T20:15:32.618Z,1.6
2023-12-20T20:28:32.629Z,1.5
2023-12-20T20:41:32.592Z,1.7
2023-12-20T20:59:32.614Z,1.5
2023-12-20T22:20:32.713Z,2.5
2023-12-20T22:36:32.680Z,2.1
2023-12-20T23:10:32.650Z,1.7
2023-12-20T23:23:32.673Z,1.1
2023-12-20T23:50:32.739Z,1.2
